createdAt,value
2023-05-08T00:02:10.912Z,4.55
2023-05-08T00:04:38.570Z,6.80
2023-05-08T00:07:06.519Z,4.38
2023-05-08T00:09:34.217Z,5.37
2023-05-08T00:12:01.821Z,5.73
2023-05-08T00:14:29.495Z,4.33
2023-05-08T00:16:59.966Z,4.37
2023-05-08T00:19:27.663Z,4.50
2023-05-08T00:21:55.293Z,5.03
2023-05-08T00:24:22.963Z,5.27
2023-05-08T00:26:50.661Z,5.23
2023-05-08T00:29:18.330Z,4.37
2023-05-08T00:31:45.992Z,4.30
2023-05-08T00:34:16.072Z,4.03
2023-05-08T00:36:43.638Z,4.37
2023-05-08T00:39:12.546Z,5.13
2023-05-08T00:41:40.227Z,5.57
2023-05-08T00:44:08.395Z,4.30
2023-05-08T00:46:37.005Z,3.92
2023-05-08T00:49:05.805Z,4.70
2023-05-08T00:51:34.188Z,5.53
2023-05-08T00:54:02.007Z,4.77
2023-05-08T00:56:32.385Z,4.50
2023-05-08T00:59:03.731Z,5.40
2023-05-08T01:01:33.529Z,5.60
2023-05-08T01:04:02.061Z,6.43
2023-05-08T01:06:29.928Z,8.40
2023-05-08T01:09:10.808Z,6.70
2023-05-08T01:12:00.807Z,6.43
2023-05-08T01:14:44.867Z,7.70
2023-05-08T01:17:12.436Z,7.33
2023-05-08T01:20:00.817Z,7.20
2023-05-08T01:22:59.340Z,7.60
2023-05-08T01:25:40.303Z,6.37
2023-05-08T01:28:19.419Z,6.30
2023-05-08T01:31:28.270Z,10.03
2023-05-08T01:34:01.221Z,6.40
2023-05-08T01:36:57.472Z,8.73
2023-05-08T01:39:48.521Z,5.63
2023-05-08T01:42:32.713Z,6.40
2023-05-08T01:45:07.167Z,8.77
2023-05-08T01:47:38.206Z,6.37
2023-05-08T01:50:20.980Z,6.63
2023-05-08T01:53:03.249Z,6.67
2023-05-08T01:55:37.841Z,5.90
2023-05-08T01:58:09.673Z,6.17
2023-05-08T02:00:45.821Z,6.87
2023-05-08T02:03:16.478Z,6.37
2023-05-08T02:05:45.962Z,5.87
2023-05-08T02:08:15.700Z,6.57
2023-05-08T02:10:46.918Z,6.63
2023-05-08T02:13:19.117Z,6.63
2023-05-08T02:15:56.379Z,7.73
2023-05-08T02:18:25.668Z,7.20
2023-05-08T02:20:54.436Z,8.17
2023-05-08T02:23:25.921Z,7.27
2023-05-08T02:25:54.365Z,8.70
2023-05-08T02:28:23.972Z,7.10
2023-05-08T02:30:52.724Z,7.20
2023-05-08T02:33:21.954Z,7.83
2023-05-08T02:35:53.136Z,6.87
2023-05-08T02:38:28.715Z,8.50
2023-05-08T02:41:01.437Z,7.73
2023-05-08T02:43:32.497Z,8.43
2023-05-08T02:46:53.330Z,8.63
2023-05-08T02:49:28.355Z,8.63
2023-05-08T02:52:30.620Z,7.50
2023-05-08T02:55:41.106Z,7.97
2023-05-08T02:58:19.679Z,7.73
2023-05-08T03:00:59.447Z,7.97
2023-05-08T03:03:37.580Z,8.17
2023-05-08T03:06:11.948Z,7.80
2023-05-08T03:08:42.018Z,8.23
2023-05-08T03:11:21.636Z,9.07
2023-05-08T03:13:51.478Z,8.70
2023-05-08T03:16:23.057Z,8.20
2023-05-08T03:18:59.640Z,9.07
2023-05-08T03:21:30.282Z,10.17
2023-05-08T03:24:00.582Z,7.77
2023-05-08T03:26:28.785Z,7.47
2023-05-08T03:29:00.156Z,7.23
2023-05-08T03:31:31.433Z,9.00
2023-05-08T03:34:00.068Z,8.23
2023-05-08T03:36:31.513Z,11.63
2023-05-08T03:39:00.401Z,8.10
2023-05-08T03:41:28.064Z,9.07
2023-05-08T03:43:59.954Z,8.43
2023-05-08T03:46:31.269Z,8.70
2023-05-08T03:49:04.175Z,8.27
2023-05-08T03:51:32.452Z,8.70
2023-05-08T03:54:00.277Z,9.50
2023-05-08T03:56:30.788Z,9.13
2023-05-08T03:59:24.291Z,8.23
2023-05-08T04:02:03.502Z,8.10
2023-05-08T04:04:40.723Z,8.13
2023-05-08T04:07:27.697Z,10.50
2023-05-08T04:10:01.159Z,7.90
2023-05-08T04:12:50.793Z,8.47
2023-05-08T04:15:22.566Z,7.87
2023-05-08T04:18:04.151Z,8.00
2023-05-08T04:20:33.054Z,8.47
2023-05-08T04:23:02.168Z,7.53
2023-05-08T04:25:33.559Z,9.37
2023-05-08T04:28:02.583Z,8.87
2023-05-08T04:30:30.642Z,10.23
2023-05-08T04:32:59.552Z,9.87
2023-05-08T04:35:27.462Z,8.60
2023-05-08T04:37:56.076Z,9.10
2023-05-08T04:40:26.515Z,10.80
2023-05-08T04:42:54.255Z,10.40
2023-05-08T04:45:21.977Z,11.73
2023-05-08T04:47:49.600Z,11.20
2023-05-08T04:50:17.409Z,18.37
2023-05-08T04:52:45.320Z,11.93
2023-05-08T04:55:16.214Z,10.83
2023-05-08T04:57:46.557Z,9.97
2023-05-08T05:00:14.809Z,9.20
2023-05-08T05:02:45.008Z,13.37
2023-05-08T05:05:17.314Z,11.37
2023-05-08T05:07:47.540Z,12.00
2023-05-08T05:10:18.325Z,12.97
2023-05-08T05:12:46.722Z,15.03
2023-05-08T05:15:14.895Z,14.03
2023-05-08T05:17:42.777Z,12.47
2023-05-08T05:20:14.171Z,13.30
2023-05-08T05:22:41.798Z,15.07
2023-05-08T05:25:09.962Z,14.77
2023-05-08T05:27:39.155Z,14.80
2023-05-08T05:30:13.208Z,13.87
2023-05-08T05:32:41.712Z,12.97
2023-05-08T05:35:12.527Z,12.77
2023-05-08T05:37:40.506Z,11.80
2023-05-08T05:40:08.842Z,13.47
2023-05-08T05:42:39.081Z,13.47
2023-05-08T05:45:07.680Z,12.90
2023-05-08T05:47:35.398Z,13.83
2023-05-08T05:50:03.282Z,12.27
2023-05-08T05:52:30.919Z,11.53
2023-05-08T05:54:58.535Z,10.90
2023-05-08T05:57:26.328Z,10.10
2023-05-08T05:59:54.844Z,9.60
2023-05-08T06:02:23.006Z,10.17
2023-05-08T06:04:52.069Z,12.10
2023-05-08T06:07:21.143Z,11.13
2023-05-08T06:09:53.514Z,11.47
2023-05-08T06:12:21.198Z,11.20
2023-05-08T06:14:48.901Z,11.57
2023-05-08T06:17:18.039Z,10.97
2023-05-08T06:19:52.494Z,11.20
2023-05-08T06:22:27.485Z,9.40
2023-05-08T06:24:55.650Z,8.20
2023-05-08T06:27:23.516Z,9.87
2023-05-08T06:29:53.194Z,10.13
2023-05-08T06:32:21.679Z,8.20
2023-05-08T06:34:49.602Z,8.03
2023-05-08T06:37:17.313Z,7.97
2023-05-08T06:39:45.279Z,8.53
2023-05-08T06:42:12.947Z,8.67
2023-05-08T06:44:43.778Z,8.93
2023-05-08T06:47:14.769Z,8.50
2023-05-08T06:49:42.492Z,9.80
2023-05-08T06:52:10.156Z,10.57
2023-05-08T06:54:37.818Z,9.73
2023-05-08T06:57:06.146Z,9.67
2023-05-08T06:59:34.790Z,9.70
2023-05-08T07:02:02.636Z,9.40
2023-05-08T07:04:32.115Z,12.43
2023-05-08T07:07:18.380Z,8.83
2023-05-08T07:09:46.124Z,9.17
2023-05-08T07:12:16.721Z,11.50
2023-05-08T07:14:45.219Z,10.87
2023-05-08T07:17:12.926Z,9.57
2023-05-08T07:19:40.576Z,9.90
2023-05-08T07:22:08.264Z,9.70
2023-05-08T07:24:38.433Z,10.17
2023-05-08T07:27:06.520Z,8.73
2023-05-08T07:29:36.039Z,9.45
2023-05-08T07:32:07.724Z,9.17
2023-05-08T07:34:35.675Z,9.43
2023-05-08T07:37:03.762Z,8.90
2023-05-08T07:39:31.768Z,10.47
2023-05-08T07:41:59.360Z,9.97
2023-05-08T07:44:27.033Z,9.07
2023-05-08T07:46:54.773Z,9.87
2023-05-08T07:49:22.488Z,9.60
2023-05-08T07:51:50.191Z,9.30
2023-05-08T07:54:18.174Z,10.27
2023-05-08T07:56:46.041Z,10.07
2023-05-08T07:59:13.800Z,11.20
2023-05-08T08:01:47.073Z,10.50
2023-05-08T08:04:15.507Z,12.10
2023-05-08T08:06:43.492Z,10.37
2023-05-08T08:09:16.449Z,10.20
2023-05-08T08:11:47.298Z,9.90
2023-05-08T08:14:14.995Z,10.90
2023-05-08T08:16:43.000Z,10.70
2023-05-08T08:19:11.001Z,10.90
2023-05-08T08:21:46.182Z,11.37
2023-05-08T08:24:14.437Z,9.80
2023-05-08T08:26:42.051Z,10.40
2023-05-08T08:29:18.654Z,10.70
2023-05-08T08:31:46.282Z,10.40
2023-05-08T08:34:14.058Z,9.93
2023-05-08T08:36:41.686Z,9.90
2023-05-08T08:39:11.594Z,10.10
2023-05-08T08:41:40.988Z,10.37
2023-05-08T08:44:08.641Z,10.43
2023-05-08T08:46:44.052Z,11.80
2023-05-08T08:49:17.760Z,10.60
2023-05-08T08:51:55.726Z,10.47
2023-05-08T08:54:31.483Z,11.10
2023-05-08T08:57:01.911Z,10.45
2023-05-08T08:59:29.924Z,10.77
2023-05-08T09:02:01.397Z,11.40
2023-05-08T09:04:31.717Z,10.47
2023-05-08T09:07:00.376Z,11.20
2023-05-08T09:09:28.861Z,11.10
2023-05-08T09:11:56.756Z,11.13
2023-05-08T09:14:26.721Z,11.10
2023-05-08T09:16:55.076Z,10.93
2023-05-08T09:19:27.060Z,11.20
2023-05-08T09:22:00.480Z,10.53
2023-05-08T09:24:56.177Z,10.30
2023-05-08T09:27:25.674Z,11.77
2023-05-08T09:30:07.246Z,11.03
2023-05-08T09:32:37.310Z,11.93
2023-05-08T09:35:06.885Z,11.87
2023-05-08T09:37:44.142Z,11.53
2023-05-08T09:40:24.045Z,11.77
2023-05-08T09:42:51.990Z,11.70
2023-05-08T09:45:27.031Z,12.55
2023-05-08T09:47:57.967Z,11.37
2023-05-08T09:50:25.807Z,11.88
2023-05-08T09:52:53.594Z,13.43
2023-05-08T09:55:21.381Z,11.80
2023-05-08T09:57:59.968Z,12.20
2023-05-08T10:00:30.551Z,11.57
2023-05-08T10:03:02.875Z,11.37
2023-05-08T10:05:32.715Z,13.63
2023-05-08T10:08:22.293Z,12.63
2023-05-08T10:10:50.704Z,11.97
2023-05-08T10:13:18.365Z,11.00
2023-05-08T10:15:51.688Z,12.40
2023-05-08T10:18:24.365Z,11.77
2023-05-08T10:20:57.525Z,11.93
2023-05-08T10:23:26.405Z,11.82
2023-05-08T10:26:00.197Z,11.68
2023-05-08T10:29:03.103Z,11.52
2023-05-08T10:31:35.512Z,12.38
2023-05-08T10:34:04.108Z,11.80
2023-05-08T10:36:32.780Z,11.27
2023-05-08T10:39:00.670Z,12.07
2023-05-08T10:41:29.435Z,11.88
2023-05-08T10:44:01.631Z,11.35
2023-05-08T10:46:46.262Z,11.80
2023-05-08T10:49:39.590Z,10.95
2023-05-08T10:52:34.342Z,12.15
2023-05-08T10:55:17.662Z,10.90
2023-05-08T10:58:07.189Z,11.00
2023-05-08T11:00:53.509Z,10.95
2023-05-08T11:03:31.549Z,11.38
2023-05-08T11:06:01.821Z,11.90
2023-05-08T11:08:31.838Z,11.65
2023-05-08T11:11:05.368Z,11.90
2023-05-08T11:13:38.143Z,12.68
2023-05-08T11:16:12.404Z,13.15
2023-05-08T11:19:18.899Z,13.48
2023-05-08T11:22:12.372Z,14.00
2023-05-08T11:24:46.868Z,13.43
2023-05-08T11:27:15.743Z,13.55
2023-05-08T11:29:44.910Z,13.10
2023-05-08T11:32:12.675Z,13.73
2023-05-08T11:34:43.418Z,13.93
2023-05-08T11:37:16.449Z,14.27
2023-05-08T11:39:44.561Z,15.20
2023-05-08T11:42:27.317Z,13.07
2023-05-08T11:45:10.309Z,14.93
2023-05-08T11:47:43.313Z,14.90
2023-05-08T11:50:13.608Z,14.75
2023-05-08T11:52:46.685Z,14.57
2023-05-08T11:55:15.756Z,15.07
2023-05-08T11:57:43.378Z,13.95
2023-05-08T12:00:12.792Z,15.45
2023-05-08T12:02:46.789Z,14.97
2023-05-08T12:05:14.598Z,14.43
2023-05-08T12:07:48.494Z,14.55
2023-05-08T12:10:17.068Z,14.57
2023-05-08T12:12:45.696Z,14.00
2023-05-08T12:15:15.213Z,15.00
2023-05-08T12:17:43.558Z,13.75
2023-05-08T12:20:12.690Z,14.85
2023-05-08T12:22:41.730Z,13.73
2023-05-08T12:25:12.025Z,12.73
2023-05-08T12:27:39.994Z,13.07
2023-05-08T12:30:09.591Z,13.10
2023-05-08T12:32:39.353Z,13.02
2023-05-08T12:35:08.316Z,13.27
2023-05-08T12:37:36.719Z,12.88
2023-05-08T12:40:05.618Z,13.40
2023-05-08T12:42:52.008Z,12.25
2023-05-08T12:45:20.452Z,14.43
2023-05-08T12:47:53.699Z,13.30
2023-05-08T12:50:22.256Z,14.05
2023-05-08T12:52:52.453Z,12.65
2023-05-08T12:55:27.908Z,12.95
2023-05-08T12:58:11.960Z,16.05
2023-05-08T13:00:49.641Z,13.27
2023-05-08T13:03:29.154Z,13.13
2023-05-08T13:05:58.391Z,13.85
2023-05-08T13:08:43.092Z,13.05
2023-05-08T13:11:10.718Z,14.93
2023-05-08T13:13:41.293Z,12.60
2023-05-08T13:16:09.465Z,13.60
2023-05-08T13:18:38.651Z,13.30
2023-05-08T13:21:09.003Z,13.70
2023-05-08T13:23:39.891Z,14.15
2023-05-08T13:26:07.556Z,13.18
2023-05-08T13:28:39.553Z,13.10
2023-05-08T13:31:10.227Z,12.90
2023-05-08T13:33:38.481Z,12.82
2023-05-08T13:36:11.381Z,13.80
2023-05-08T13:38:41.138Z,12.60
2023-05-08T13:41:08.742Z,13.40
2023-05-08T13:43:40.001Z,13.43
2023-05-08T13:46:07.634Z,14.77
2023-05-08T13:48:35.390Z,14.93
2023-05-08T13:51:03.516Z,14.23
2023-05-08T13:53:31.583Z,14.60
2023-05-08T13:55:59.399Z,14.85
2023-05-08T13:58:29.561Z,14.80
2023-05-08T14:00:57.298Z,14.63
2023-05-08T14:03:27.067Z,14.45
2023-05-08T14:05:54.754Z,15.23
2023-05-08T14:08:22.483Z,14.70
2023-05-08T14:10:51.105Z,15.57
2023-05-08T14:13:18.892Z,18.45
2023-05-08T14:15:50.217Z,15.40
2023-05-08T14:18:21.133Z,17.38
2023-05-08T14:20:56.886Z,17.30
2023-05-08T14:23:25.580Z,16.98
2023-05-08T14:25:53.726Z,17.27
2023-05-08T14:28:21.509Z,17.05
2023-05-08T14:30:49.163Z,16.60
2023-05-08T14:33:18.650Z,17.55
2023-05-08T14:35:49.708Z,16.67
2023-05-08T14:38:18.034Z,16.67
2023-05-08T14:40:46.929Z,17.08
2023-05-08T14:43:26.926Z,18.10
2023-05-08T14:45:54.621Z,17.25
2023-05-08T14:48:24.856Z,16.83
2023-05-08T14:50:55.377Z,15.55
2023-05-08T14:53:23.858Z,16.25
2023-05-08T14:55:52.224Z,16.88
2023-05-08T14:58:25.419Z,15.05
2023-05-08T15:00:53.027Z,15.27
2023-05-08T15:03:21.125Z,17.35
2023-05-08T15:05:51.422Z,19.08
2023-05-08T15:08:19.139Z,16.38
2023-05-08T15:10:48.836Z,15.13
2023-05-08T15:13:16.717Z,15.00
2023-05-08T15:15:47.284Z,14.40
2023-05-08T15:18:17.410Z,17.17
2023-05-08T15:20:46.759Z,14.80
2023-05-08T15:23:14.535Z,14.13
2023-05-08T15:25:42.138Z,14.95
2023-05-08T15:28:10.276Z,14.13
2023-05-08T15:30:47.261Z,14.43
2023-05-08T15:33:17.476Z,15.45
2023-05-08T15:35:45.232Z,14.90
2023-05-08T15:38:13.017Z,14.82
2023-05-08T15:40:40.798Z,14.27
2023-05-08T15:43:08.493Z,13.18
2023-05-08T15:45:36.132Z,12.50
2023-05-08T15:48:05.421Z,13.60
2023-05-08T15:50:35.412Z,13.10
2023-05-08T15:53:05.449Z,12.88
2023-05-08T15:55:35.840Z,13.68
2023-05-08T15:58:03.595Z,13.35
2023-05-08T16:00:43.918Z,13.63
2023-05-08T16:03:15.169Z,12.02
2023-05-08T16:05:43.581Z,13.05
2023-05-08T16:08:15.331Z,13.48
2023-05-08T16:10:43.267Z,12.75
2023-05-08T16:13:11.028Z,13.27
2023-05-08T16:15:41.705Z,13.90
2023-05-08T16:18:09.648Z,12.15
2023-05-08T16:20:39.873Z,13.63
2023-05-08T16:23:10.312Z,12.32
2023-05-08T16:25:38.155Z,13.02
2023-05-08T16:28:15.028Z,12.25
2023-05-08T16:30:46.991Z,13.45
2023-05-08T16:33:16.008Z,12.98
2023-05-08T16:35:48.539Z,12.48
2023-05-08T16:38:18.634Z,13.35
2023-05-08T16:40:46.253Z,13.35
2023-05-08T16:43:14.041Z,13.13
2023-05-08T16:45:42.700Z,12.82
2023-05-08T16:48:10.808Z,13.55
2023-05-08T16:50:40.784Z,13.60
2023-05-08T16:53:08.465Z,14.82
2023-05-08T16:55:36.408Z,14.52
2023-05-08T16:58:05.002Z,14.45
2023-05-08T17:00:33.092Z,13.93
2023-05-08T17:03:03.969Z,14.77
2023-05-08T17:05:31.998Z,13.82
2023-05-08T17:08:07.695Z,15.20
2023-05-08T17:10:35.941Z,14.30
2023-05-08T17:13:03.944Z,14.98
2023-05-08T17:15:34.311Z,15.35
2023-05-08T17:21:06.946Z,14.45
2023-05-08T17:23:34.690Z,14.57
2023-05-08T17:26:02.495Z,14.80
2023-05-08T17:28:30.288Z,15.15
2023-05-08T17:30:58.557Z,15.48
2023-05-08T17:33:26.491Z,15.25
2023-05-08T17:35:54.256Z,15.23
2023-05-08T17:38:25.018Z,14.45
2023-05-08T17:40:52.699Z,14.57
2023-05-08T17:43:20.868Z,14.52
2023-05-08T17:45:48.776Z,15.95
2023-05-08T17:48:16.366Z,15.52
2023-05-08T17:50:46.413Z,16.20
2023-05-08T17:53:14.050Z,15.80
2023-05-08T17:55:41.871Z,15.95
2023-05-08T17:58:09.470Z,15.68
2023-05-08T18:00:37.783Z,16.30
2023-05-08T18:03:05.719Z,15.18
2023-05-08T18:05:33.373Z,15.35
2023-05-08T18:08:01.718Z,15.68
2023-05-08T18:10:29.445Z,15.23
2023-05-08T18:12:57.061Z,15.35
2023-05-08T18:15:24.809Z,14.18
2023-05-08T18:17:53.482Z,13.73
2023-05-08T18:20:21.268Z,14.98
2023-05-08T18:22:48.979Z,15.90
2023-05-08T18:25:16.743Z,16.73
2023-05-08T18:27:46.016Z,15.93
2023-05-08T18:30:13.950Z,14.55
2023-05-08T18:32:41.823Z,13.88
2023-05-08T18:35:09.470Z,14.65
2023-05-08T18:37:37.165Z,15.35
2023-05-08T18:40:05.124Z,16.55
2023-05-08T18:42:32.748Z,16.58
2023-05-08T18:45:00.825Z,15.60
2023-05-08T18:47:28.430Z,15.07
2023-05-08T18:49:57.844Z,16.15
2023-05-08T18:52:25.981Z,15.55
2023-05-08T18:54:53.652Z,17.08
2023-05-08T18:57:21.514Z,18.00
2023-05-08T18:59:49.154Z,18.13
2023-05-08T19:02:16.771Z,17.17
2023-05-08T19:04:44.523Z,17.37
2023-05-08T19:07:12.106Z,18.13
2023-05-08T19:09:39.749Z,18.47
2023-05-08T19:12:07.396Z,17.63
2023-05-08T19:14:35.030Z,17.47
2023-05-08T19:17:02.746Z,18.80
2023-05-08T19:19:30.659Z,18.60
2023-05-08T19:22:00.010Z,20.90
2023-05-08T19:24:29.921Z,17.37
2023-05-08T19:26:59.900Z,17.57
2023-05-08T19:29:29.603Z,17.37
2023-05-08T19:31:57.245Z,18.93
2023-05-08T19:34:25.100Z,18.93
2023-05-08T19:36:52.832Z,19.57
2023-05-08T19:39:20.402Z,19.57
2023-05-08T19:41:48.015Z,19.63
2023-05-08T19:44:15.711Z,20.13
2023-05-08T19:46:46.152Z,20.20
2023-05-08T19:49:16.021Z,19.10
2023-05-08T19:51:43.826Z,18.20
2023-05-08T19:54:14.286Z,18.57
2023-05-08T19:56:41.907Z,17.77
2023-05-08T19:59:09.966Z,18.30
2023-05-08T20:01:37.772Z,20.90
2023-05-08T20:04:05.754Z,21.07
2023-05-08T20:06:33.514Z,21.50
2023-05-08T20:09:03.658Z,18.53
2023-05-08T20:11:31.253Z,19.03
2023-05-08T20:13:58.920Z,19.33
2023-05-08T20:16:27.100Z,19.10
2023-05-08T20:18:54.833Z,20.13
2023-05-08T20:21:22.526Z,22.63
2023-05-08T20:23:50.096Z,21.33
2023-05-08T20:26:17.672Z,21.70
2023-05-08T20:28:45.257Z,19.37
2023-05-08T20:31:12.939Z,18.27
2023-05-08T20:33:41.079Z,20.27
2023-05-08T20:36:08.814Z,21.67
2023-05-08T20:38:36.866Z,22.43
2023-05-08T20:41:04.984Z,21.77
2023-05-08T20:43:36.077Z,21.83
2023-05-08T20:46:03.837Z,20.97
2023-05-08T20:48:31.432Z,22.17
2023-05-08T20:50:59.069Z,21.13
2023-05-08T20:53:26.709Z,20.23
2023-05-08T20:56:01.700Z,19.43
2023-05-08T20:58:29.489Z,18.90
2023-05-08T21:00:57.144Z,18.53
2023-05-08T21:03:27.608Z,21.30
2023-05-08T21:05:55.472Z,19.40
2023-05-08T21:08:24.048Z,19.90
2023-05-08T21:10:52.720Z,20.20
2023-05-08T21:13:20.436Z,20.50
2023-05-08T21:15:50.998Z,18.27
2023-05-08T21:18:18.837Z,19.20
2023-05-08T21:20:50.018Z,19.57
2023-05-08T21:23:18.912Z,19.97
2023-05-08T21:25:47.313Z,16.70
2023-05-08T21:28:16.059Z,19.63
2023-05-08T21:30:44.122Z,18.00
2023-05-08T21:33:13.805Z,18.60
2023-05-08T21:35:44.781Z,17.17
2023-05-08T21:38:12.399Z,18.73
2023-05-08T21:40:39.969Z,18.83
2023-05-08T21:43:07.959Z,19.80
2023-05-08T21:45:35.716Z,19.47
2023-05-08T21:48:03.532Z,18.87
2023-05-08T21:50:31.337Z,20.63
2023-05-08T21:52:58.995Z,20.40
2023-05-08T21:55:26.707Z,19.73
2023-05-08T21:57:54.312Z,18.97
2023-05-08T22:00:22.113Z,19.13
2023-05-08T22:02:49.899Z,21.17
2023-05-08T22:05:17.506Z,18.30
2023-05-08T22:07:45.374Z,18.77
2023-05-08T22:10:13.866Z,18.80
2023-05-08T22:12:41.540Z,19.57
2023-05-08T22:15:21.712Z,18.00
2023-05-08T22:17:56.747Z,16.67
2023-05-08T22:20:24.564Z,15.70
2023-05-08T22:22:52.181Z,15.07
2023-05-08T22:25:21.617Z,16.63
2023-05-08T22:27:49.332Z,15.60
2023-05-08T22:30:16.910Z,16.53
2023-05-08T22:32:46.629Z,16.13
2023-05-08T22:35:14.693Z,17.43
2023-05-08T22:37:42.454Z,18.17
2023-05-08T22:40:10.508Z,16.20
2023-05-08T22:42:38.350Z,16.63
2023-05-08T22:45:06.486Z,17.07
2023-05-08T22:47:35.222Z,16.23
2023-05-08T22:50:08.213Z,15.90
2023-05-08T22:52:36.568Z,16.83
2023-05-08T22:55:05.412Z,16.90
2023-05-08T22:57:32.996Z,16.30
2023-05-08T23:00:00.763Z,17.37
2023-05-08T23:02:32.883Z,17.47
2023-05-08T23:05:01.829Z,16.33
2023-05-08T23:07:32.067Z,15.67
2023-05-08T23:09:59.685Z,16.20
2023-05-08T23:12:27.337Z,15.80
2023-05-08T23:14:54.938Z,16.83
2023-05-08T23:17:22.862Z,16.33
2023-05-08T23:19:50.585Z,18.40
2023-05-08T23:22:18.165Z,16.97
2023-05-08T23:24:45.744Z,17.47
2023-05-08T23:27:13.398Z,17.57
2023-05-08T23:29:41.520Z,16.37
2023-05-08T23:32:09.111Z,16.07
2023-05-08T23:34:36.744Z,17.67
2023-05-08T23:37:04.714Z,18.13
2023-05-08T23:39:40.956Z,18.17
2023-05-08T23:42:09.229Z,19.63
2023-05-08T23:44:37.294Z,19.10
2023-05-08T23:47:05.072Z,18.57
2023-05-08T23:49:35.732Z,18.70
2023-05-08T23:52:03.447Z,20.23
2023-05-08T23:54:31.009Z,19.57
2023-05-08T23:56:59.866Z,19.93
2023-05-08T23:59:27.533Z,20.50
